Time;durP1;ratioP1;P1;durP2;ratioP2;P2;SDS_P1;SDS_P2;PMS_P1;PMS_P2;Temp;Humidity;BMP_temperature;BMP_pressure;BME280_temperature;BME280_humidity;BME280_pressure;Samples;Min_cycle;Max_cycle;Signal;HPM_P1;HPM_P2
2022/05/26 00:01:08;;;;;;;5.77;5.47;;;13.10;21.80;;;;;;5012541;28;20506;-69
2022/05/26 00:03:35;;;;;;;6.50;6.00;;;13.00;22.30;;;;;;5013880;28;20479;-69
2022/05/26 00:06:02;;;;;;;5.90;5.60;;;13.00;22.20;;;;;;5013394;28;20419;-69
2022/05/26 00:08:28;;;;;;;5.57;5.30;;;12.90;22.40;;;;;;5013396;28;20955;-69
2022/05/26 00:10:54;;;;;;;5.80;5.50;;;13.00;22.40;;;;;;5012662;28;20450;-69
2022/05/26 00:13:21;;;;;;;5.97;5.67;;;12.90;22.60;;;;;;5011939;28;20862;-69
2022/05/26 00:15:47;;;;;;;5.27;5.03;;;12.90;22.40;;;;;;5016257;28;20422;-69
2022/05/26 00:18:12;;;;;;;4.97;4.77;;;12.80;22.60;;;;;;5017414;28;20426;-69
2022/05/26 00:20:38;;;;;;;5.80;5.40;;;12.80;22.60;;;;;;5017710;28;20186;-69
2022/05/26 00:23:03;;;;;;;6.00;5.70;;;12.70;22.70;;;;;;5019243;28;20240;-69
2022/05/26 00:25:29;;;;;;;5.90;5.60;;;12.70;22.60;;;;;;5016493;28;20287;-69
2022/05/26 00:27:55;;;;;;;6.40;6.10;;;12.60;22.70;;;;;;5017474;28;20200;-69
2022/05/26 00:30:21;;;;;;;5.07;4.77;;;12.60;22.90;;;;;;5015735;28;20207;-69
2022/05/26 00:32:46;;;;;;;5.37;5.07;;;12.60;22.80;;;;;;5015083;28;20501;-69
2022/05/26 00:35:15;;;;;;;5.50;5.10;;;12.60;23.20;;;;;;5015355;28;20653;-69
2022/05/26 00:37:41;;;;;;;5.20;4.90;;;12.60;23.10;;;;;;5019245;28;20188;-69
2022/05/26 00:40:08;;;;;;;5.50;5.10;;;12.50;23.40;;;;;;5018598;28;20417;-69
2022/05/26 00:42:33;;;;;;;5.10;4.80;;;12.60;23.20;;;;;;5015707;28;20773;-69
2022/05/26 00:44:59;;;;;;;5.00;4.70;;;12.60;23.30;;;;;;5016009;28;20423;-72
2022/05/26 00:47:28;;;;;;;5.30;5.10;;;12.50;23.30;;;;;;5014805;28;20545;-69
2022/05/26 00:50:04;;;;;;;5.07;4.77;;;12.50;23.30;;;;;;5015755;28;20220;-70
2022/05/26 00:52:42;;;;;;;5.20;5.00;;;12.50;23.20;;;;;;5013877;28;20778;-69
2022/05/26 00:55:23;;;;;;;4.43;4.23;;;12.50;23.20;;;;;;5015608;28;20455;-70
2022/05/26 00:58:00;;;;;;;5.03;4.83;;;12.50;23.50;;;;;;5015401;28;20936;-69
2022/05/26 01:00:30;;;;;;;5.83;5.30;;;12.50;23.50;;;;;;5015163;28;20564;-69
2022/05/26 01:03:21;;;;;;;4.77;4.50;;;12.60;23.30;;;;;;5015222;28;20505;-69
2022/05/26 01:06:16;;;;;;;5.33;4.93;;;12.60;23.70;;;;;;5018575;28;20415;-70
2022/05/26 01:08:49;;;;;;;4.53;4.33;;;12.70;23.70;;;;;;5017260;28;20480;-69
2022/05/26 01:11:14;;;;;;;9.13;4.43;;;12.60;23.70;;;;;;5018608;28;20415;-69
2022/05/26 01:13:47;;;;;;;5.00;4.80;;;12.60;23.80;;;;;;5018214;28;20442;-69
2022/05/26 01:16:55;;;;;;;4.70;4.27;;;12.60;23.70;;;;;;5017386;28;20183;-69
2022/05/26 01:19:43;;;;;;;5.23;4.83;;;12.50;23.90;;;;;;5017227;28;20939;-69
2022/05/26 01:22:34;;;;;;;5.40;5.10;;;12.60;23.70;;;;;;5015128;28;20524;-69
2022/05/26 01:25:18;;;;;;;4.70;4.50;;;12.50;23.60;;;;;;5015351;28;20428;-69
2022/05/26 01:27:46;;;;;;;4.33;4.13;;;12.50;23.70;;;;;;5014303;28;20431;-69
2022/05/26 01:30:24;;;;;;;4.50;4.30;;;12.40;24.20;;;;;;5014560;28;20474;-69
2022/05/26 01:33:06;;;;;;;5.43;5.13;;;12.30;24.20;;;;;;5014458;28;20416;-69
2022/05/26 01:36:03;;;;;;;4.40;4.20;;;12.40;24.20;;;;;;5014069;28;20399;-69
2022/05/26 01:38:49;;;;;;;4.90;4.60;;;12.30;24.20;;;;;;5014521;28;20430;-69
2022/05/26 01:41:59;;;;;;;4.40;4.20;;;12.20;24.10;;;;;;5013737;28;20792;-69
2022/05/26 01:44:49;;;;;;;4.33;4.07;;;12.10;24.40;;;;;;5014165;28;20451;-70
2022/05/26 01:47:33;;;;;;;4.17;3.97;;;12.00;25.50;;;;;;5012694;28;20428;-69
2022/05/26 01:50:25;;;;;;;4.90;4.13;;;12.10;24.90;;;;;;5056868;22;20495;-66
2022/05/26 01:53:22;;;;;;;4.33;4.03;;;12.10;25.50;;;;;;4993535;28;20415;-67
2022/05/26 01:56:07;;;;;;;3.80;3.50;;;12.00;25.20;;;;;;4993582;28;20456;-68
2022/05/26 01:58:40;;;;;;;4.73;4.20;;;12.00;25.20;;;;;;4993314;28;20789;-67
2022/05/26 02:01:12;;;;;;;3.47;3.27;;;11.90;25.10;;;;;;4993478;28;20482;-67
2022/05/26 02:03:41;;;;;;;4.20;3.90;;;11.80;25.40;;;;;;4993255;28;20460;-67
2022/05/26 02:06:17;;;;;;;3.40;3.20;;;11.80;25.30;;;;;;4993358;28;20402;-67
2022/05/26 02:08:48;;;;;;;4.03;3.73;;;11.80;25.60;;;;;;4993239;28;20466;-67
2022/05/26 02:11:17;;;;;;;3.33;3.13;;;11.80;25.60;;;;;;4992957;28;20446;-67
2022/05/26 02:13:52;;;;;;;3.73;3.50;;;11.80;25.60;;;;;;4993124;28;20427;-67
2022/05/26 02:16:46;;;;;;;3.30;3.10;;;11.90;25.50;;;;;;4993188;28;20410;-67
2022/05/26 02:19:14;;;;;;;3.90;3.60;;;11.90;25.40;;;;;;4993170;28;20465;-67
2022/05/26 02:22:20;;;;;;;4.90;3.83;;;11.80;25.40;;;;;;4992791;28;20463;-67
2022/05/26 02:25:08;;;;;;;4.10;3.57;;;11.80;25.60;;;;;;4952099;29;20516;-67
2022/05/26 02:27:35;;;;;;;3.10;2.90;;;11.80;25.90;;;;;;4990566;28;20437;-68
2022/05/26 02:30:01;;;;;;;3.60;3.40;;;11.80;26.10;;;;;;4992744;28;20466;-68
2022/05/26 02:32:32;;;;;;;3.20;3.00;;;11.70;26.10;;;;;;4992694;28;20414;-68
2022/05/26 02:35:01;;;;;;;3.47;3.27;;;11.70;26.40;;;;;;4992902;28;20520;-68
2022/05/26 02:37:28;;;;;;;3.93;3.67;;;11.70;26.30;;;;;;4992841;28;20422;-68
2022/05/26 02:39:54;;;;;;;3.40;3.20;;;11.60;26.30;;;;;;4992801;28;20445;-70
2022/05/26 02:42:21;;;;;;;3.30;3.00;;;11.60;26.40;;;;;;4991165;28;20789;-69
2022/05/26 02:44:47;;;;;;;3.27;3.07;;;11.50;26.70;;;;;;4992753;28;20249;-68
2022/05/26 02:47:33;;;;;;;3.27;3.07;;;11.40;26.90;;;;;;4992731;28;20475;-68
2022/05/26 02:50:22;;;;;;;3.10;2.90;;;11.40;27.00;;;;;;4992661;28;20561;-69
2022/05/26 02:53:11;;;;;;;2.90;2.70;;;11.40;27.00;;;;;;4992715;28;20414;-69
2022/05/26 02:55:42;;;;;;;2.57;2.37;;;11.40;27.10;;;;;;4992919;28;20503;-68
2022/05/26 02:58:33;;;;;;;3.80;3.07;;;11.40;26.90;;;;;;4992891;28;20475;-68
2022/05/26 03:01:16;;;;;;;3.77;3.47;;;11.40;26.80;;;;;;4993629;28;20449;-67
2022/05/26 03:03:49;;;;;;;3.10;2.90;;;11.40;27.20;;;;;;4992769;28;20417;-68
2022/05/26 03:06:52;;;;;;;2.80;2.60;;;11.40;27.20;;;;;;4992695;28;20504;-70
2022/05/26 03:09:19;;;;;;;3.53;3.23;;;11.40;27.30;;;;;;4992316;28;20902;-68
2022/05/26 03:11:54;;;;;;;5.03;3.03;;;11.30;27.20;;;;;;4992535;28;20805;-69
2022/05/26 03:14:21;;;;;;;2.37;2.20;;;11.30;27.70;;;;;;4992775;28;20423;-68
2022/05/26 03:16:48;;;;;;;3.17;2.87;;;11.20;27.40;;;;;;4992721;28;20448;-69
2022/05/26 03:19:14;;;;;;;3.30;2.60;;;11.00;27.70;;;;;;4992787;28;20531;-70
2022/05/26 03:21:40;;;;;;;3.20;3.00;;;11.00;28.10;;;;;;4991099;28;20502;-69
2022/05/26 03:24:06;;;;;;;3.50;3.30;;;11.10;27.90;;;;;;4992536;28;20944;-70
2022/05/26 03:26:32;;;;;;;3.10;2.90;;;11.10;27.80;;;;;;4991278;28;20419;-69
2022/05/26 03:28:58;;;;;;;5.37;3.63;;;11.20;27.50;;;;;;4992791;28;20484;-68
2022/05/26 03:31:24;;;;;;;2.67;2.47;;;11.20;27.60;;;;;;4991327;28;20469;-70
2022/05/26 03:42:04;;;;;;;2.37;2.20;;;11.10;28.30;;;;;;4992060;28;20432;-69
2022/05/26 03:44:32;;;;;;;2.30;2.20;;;11.10;27.80;;;;;;4992354;28;20428;-69
2022/05/26 03:46:58;;;;;;;7.53;2.70;;;11.10;27.70;;;;;;4992152;28;20425;-70
2022/05/26 03:49:23;;;;;;;2.80;2.50;;;11.20;27.70;;;;;;4992104;28;20557;-69
2022/05/26 03:51:49;;;;;;;2.33;2.20;;;11.20;27.90;;;;;;4995757;28;20409;-69
2022/05/26 03:54:14;;;;;;;2.87;2.67;;;11.30;27.60;;;;;;4996008;28;20181;-69
2022/05/26 03:56:40;;;;;;;3.20;2.60;;;11.30;27.70;;;;;;4995952;28;20665;-69
2022/05/26 03:59:06;;;;;;;3.37;3.17;;;11.30;27.60;;;;;;4996036;28;20229;-70
2022/05/26 04:01:31;;;;;;;3.03;2.83;;;11.40;27.70;;;;;;4995431;28;20199;-70
2022/05/26 04:03:57;;;;;;;3.30;2.93;;;11.50;27.80;;;;;;4995775;28;20226;-69
2022/05/26 04:06:23;;;;;;;3.00;2.80;;;11.50;27.70;;;;;;4994391;28;20221;-69
2022/05/26 04:08:49;;;;;;;5.23;3.33;;;11.50;27.50;;;;;;4995671;28;20307;-70
2022/05/26 04:11:15;;;;;;;2.73;2.53;;;11.50;27.80;;;;;;4995764;28;20409;-68
2022/05/26 04:13:41;;;;;;;3.07;2.87;;;11.60;27.30;;;;;;4995671;28;20412;-69
2022/05/26 04:16:07;;;;;;;6.00;2.80;;;11.70;27.20;;;;;;4995404;28;20527;-68
2022/05/26 04:18:33;;;;;;;3.73;3.43;;;11.70;27.00;;;;;;4995326;28;20430;-67
2022/05/26 04:21:08;;;;;;;3.27;2.97;;;11.70;26.90;;;;;;4995401;28;20748;-68
2022/05/26 04:23:34;;;;;;;3.40;3.20;;;11.80;26.80;;;;;;4995021;28;20417;-67
2022/05/26 04:26:00;;;;;;;4.00;3.70;;;11.80;26.50;;;;;;4995349;28;20412;-67
2022/05/26 04:28:25;;;;;;;3.97;3.63;;;11.90;26.50;;;;;;4995216;28;20458;-67
2022/05/26 04:30:51;;;;;;;4.33;4.03;;;12.00;26.20;;;;;;4993978;28;20181;-68
2022/05/26 04:33:16;;;;;;;3.80;3.50;;;12.10;26.10;;;;;;4994887;28;20262;-68
2022/05/26 04:35:42;;;;;;;4.40;4.10;;;12.20;25.90;;;;;;4995371;28;20172;-67
2022/05/26 04:38:07;;;;;;;3.73;3.53;;;12.20;25.70;;;;;;4994983;28;20739;-68
2022/05/26 04:40:33;;;;;;;4.10;3.70;;;12.30;25.60;;;;;;4995395;28;20260;-68
2022/05/26 04:42:59;;;;;;;4.50;4.20;;;12.30;25.60;;;;;;4993548;28;20271;-67
2022/05/26 04:45:25;;;;;;;4.63;4.33;;;12.40;26.20;;;;;;4993689;28;20184;-67
2022/05/26 04:47:53;;;;;;;4.37;4.07;;;12.60;25.30;;;;;;4994960;28;20171;-67
2022/05/26 04:50:18;;;;;;;4.67;4.40;;;12.60;25.30;;;;;;4994695;28;21015;-68
2022/05/26 04:52:44;;;;;;;4.03;3.73;;;12.70;25.50;;;;;;4994588;28;20443;-68
2022/05/26 04:55:11;;;;;;;4.00;3.80;;;13.40;26.90;;;;;;4993885;28;20306;-68
2022/05/26 04:57:36;;;;;;;8.10;7.60;;;14.90;24.80;;;;;;4994585;28;20177;-67
2022/05/26 05:00:05;;;;;;;10.60;10.20;;;16.70;20.40;;;;;;4994548;28;20801;-68
2022/05/26 05:02:31;;;;;;;11.50;11.10;;;18.00;15.20;;;;;;4993299;28;20187;-67
2022/05/26 05:04:56;;;;;;;12.87;12.30;;;19.20;15.40;;;;;;4994540;28;20511;-66
2022/05/26 05:07:22;;;;;;;13.03;12.60;;;20.60;13.40;;;;;;4994620;28;20176;-69
2022/05/26 05:09:48;;;;;;;13.40;12.90;;;22.10;12.00;;;;;;4994470;28;20727;-68
2022/05/26 05:12:17;;;;;;;14.53;14.03;;;23.60;10.10;;;;;;4994157;28;20256;-68
2022/05/26 05:14:47;;;;;;;14.30;13.80;;;24.80;8.00;;;;;;4993302;28;20331;-69
2022/05/26 05:17:13;;;;;;;14.50;14.00;;;26.00;6.90;;;;;;4994331;28;20423;-68
2022/05/26 05:19:39;;;;;;;15.27;14.60;;;27.00;4.80;;;;;;4994382;28;20436;-68
2022/05/26 05:22:16;;;;;;;15.00;14.50;;;27.80;3.10;;;;;;4993972;28;20408;-68
2022/05/26 05:24:49;;;;;;;14.80;14.20;;;28.70;3.10;;;;;;4994190;28;20176;-69
2022/05/26 05:27:20;;;;;;;15.10;14.60;;;29.50;1.00;;;;;;4994310;28;20416;-68
2022/05/26 05:29:48;;;;;;;15.13;14.63;;;30.10;1.00;;;;;;4994102;28;20825;-68
2022/05/26 05:32:31;;;;;;;15.60;15.00;;;30.70;1.00;;;;;;4993926;28;20416;-69
2022/05/26 05:35:07;;;;;;;14.90;14.40;;;31.50;1.00;;;;;;4994094;28;20410;-68
2022/05/26 05:37:33;;;;;;;15.50;15.00;;;32.00;1.00;;;;;;4993902;28;20419;-68
2022/05/26 05:40:00;;;;;;;15.97;15.37;;;32.50;1.00;;;;;;4993885;28;20443;-69
2022/05/26 05:42:26;;;;;;;15.70;15.10;;;32.90;1.00;;;;;;4993806;28;20427;-69
2022/05/26 05:44:52;;;;;;;15.53;15.03;;;33.30;1.00;;;;;;4993980;28;20455;-68
2022/05/26 05:47:17;;;;;;;15.57;15.07;;;33.70;1.00;;;;;;4993844;28;20471;-68
2022/05/26 05:49:44;;;;;;;15.90;15.20;;;33.90;1.00;;;;;;4993616;28;20217;-72
2022/05/26 05:52:16;;;;;;;16.50;15.90;;;34.30;1.00;;;;;;4993573;28;20271;-69
2022/05/26 05:54:41;;;;;;;15.73;15.13;;;34.40;1.00;;;;;;4993674;28;20408;-69
2022/05/26 05:57:07;;;;;;;15.40;14.90;;;34.80;1.00;;;;;;4993539;28;20426;-68
2022/05/26 05:59:33;;;;;;;15.43;14.83;;;34.90;1.00;;;;;;4993523;28;20706;-68
2022/05/26 06:01:58;;;;;;;15.70;15.10;;;35.20;1.00;;;;;;4992111;28;20583;-67
2022/05/26 06:04:24;;;;;;;15.63;15.10;;;35.40;1.00;;;;;;4993542;28;20239;-68
2022/05/26 06:06:50;;;;;;;15.70;15.20;;;35.60;1.00;;;;;;4993737;28;20188;-68
2022/05/26 06:09:16;;;;;;;16.20;15.60;;;35.40;1.00;;;;;;4993333;28;20254;-68
2022/05/26 06:11:42;;;;;;;15.90;15.30;;;35.40;1.00;;;;;;4993287;28;20408;-68
2022/05/26 06:14:08;;;;;;;15.83;15.10;;;34.90;1.00;;;;;;4992916;28;20834;-68
2022/05/26 06:16:34;;;;;;;16.43;15.37;;;35.00;1.00;;;;;;4993291;28;20408;-68
2022/05/26 06:19:00;;;;;;;15.40;14.80;;;35.00;1.00;;;;;;4993093;28;20196;-67
2022/05/26 06:21:26;;;;;;;15.60;15.00;;;35.50;1.00;;;;;;4992949;28;20169;-68
2022/05/26 06:23:53;;;;;;;15.13;14.63;;;35.40;1.00;;;;;;4993067;28;20423;-67
2022/05/26 06:26:19;;;;;;;14.97;14.47;;;35.40;1.00;;;;;;4993110;28;20180;-68
2022/05/26 06:31:29;;;;;;;15.30;14.60;;;35.70;1.00;;;;;;4992735;28;20316;-67
2022/05/26 06:39:24;;;;;;;15.00;14.50;;;33.40;1.00;;;;;;4993029;28;20478;-69
2022/05/26 06:42:05;;;;;;;15.73;15.13;;;32.50;1.00;;;;;;4992562;28;20898;-68
2022/05/26 06:44:37;;;;;;;15.50;14.90;;;31.80;1.00;;;;;;4993221;28;20219;-71
2022/05/26 06:47:08;;;;;;;15.50;14.90;;;31.40;1.00;;;;;;4993098;28;21057;-70
2022/05/26 06:49:36;;;;;;;15.90;15.20;;;30.90;1.00;;;;;;4992898;28;20506;-68
2022/05/26 06:52:03;;;;;;;15.13;14.30;;;30.10;1.00;;;;;;4992596;28;20420;-68
2022/05/26 06:54:33;;;;;;;15.00;14.50;;;29.00;1.00;;;;;;4992718;28;20981;-70
2022/05/26 06:57:00;;;;;;;15.20;14.60;;;28.10;1.00;;;;;;4992928;28;20412;-69
2022/05/26 06:59:25;;;;;;;14.97;14.47;;;28.00;1.00;;;;;;4993153;28;20427;-69
2022/05/26 07:01:51;;;;;;;14.70;14.10;;;26.80;1.00;;;;;;4992410;28;20416;-69
2022/05/26 07:04:16;;;;;;;15.00;14.50;;;27.20;1.00;;;;;;4992704;28;20199;-69
2022/05/26 07:06:50;;;;;;;15.73;15.10;;;27.60;1.00;;;;;;4992592;28;20183;-69
2022/05/26 07:09:17;;;;;;;14.40;13.90;;;28.40;1.00;;;;;;4992448;28;20216;-70
2022/05/26 07:11:42;;;;;;;15.70;14.80;;;29.10;1.00;;;;;;4992542;28;20404;-69
2022/05/26 07:14:08;;;;;;;15.10;14.57;;;30.20;1.00;;;;;;4992637;28;20901;-68
2022/05/26 07:16:34;;;;;;;15.90;15.10;;;30.80;1.00;;;;;;4992511;28;20209;-69
2022/05/26 07:18:59;;;;;;;14.87;14.27;;;31.00;1.00;;;;;;4992404;28;20200;-69
2022/05/26 07:21:25;;;;;;;14.80;14.30;;;31.90;1.00;;;;;;4992274;28;20259;-70
2022/05/26 07:23:51;;;;;;;15.10;14.60;;;32.70;1.00;;;;;;4992731;28;20243;-70
2022/05/26 07:26:17;;;;;;;14.80;14.30;;;33.00;1.00;;;;;;5001139;28;20181;-69
2022/05/26 07:28:43;;;;;;;15.00;14.30;;;33.50;1.00;;;;;;5011598;28;20193;-68
2022/05/26 07:31:11;;;;;;;14.53;14.03;;;33.80;1.00;;;;;;4998303;28;20412;-71
2022/05/26 07:33:37;;;;;;;13.87;13.37;;;33.10;1.00;;;;;;4996955;28;20420;-67
2022/05/26 07:36:04;;;;;;;14.70;14.00;;;33.10;1.00;;;;;;4996220;28;20423;-69
2022/05/26 07:41:22;;;;;;;15.03;14.53;;;33.70;1.00;;;;;;4996492;28;20991;-69
2022/05/26 07:43:55;;;;;;;14.63;14.10;;;34.00;1.00;;;;;;4996150;28;20415;-68
2022/05/26 07:46:23;;;;;;;14.60;14.10;;;34.30;1.00;;;;;;4996234;28;20418;-71
2022/05/26 07:48:49;;;;;;;14.90;14.40;;;33.80;1.00;;;;;;4996263;28;20463;-69
2022/05/26 07:51:16;;;;;;;14.80;14.30;;;33.50;1.00;;;;;;4994568;28;20419;-68
2022/05/26 07:53:41;;;;;;;15.17;14.57;;;33.50;1.00;;;;;;4995891;28;20619;-68
2022/05/26 07:56:09;;;;;;;15.00;14.40;;;33.70;1.00;;;;;;4994751;28;20978;-68
2022/05/26 07:58:35;;;;;;;14.60;14.10;;;33.80;1.00;;;;;;4995879;28;20188;-68
2022/05/26 08:01:01;;;;;;;14.67;14.10;;;33.20;1.00;;;;;;4996100;28;20424;-67
2022/05/26 08:03:27;;;;;;;14.90;14.40;;;33.20;1.00;;;;;;4995515;28;20647;-68
2022/05/26 08:05:53;;;;;;;14.60;14.10;;;32.80;1.00;;;;;;4996095;28;20442;-68
2022/05/26 08:08:18;;;;;;;14.60;14.10;;;32.20;1.00;;;;;;4995740;28;20896;-69
2022/05/26 08:10:44;;;;;;;14.87;14.37;;;31.80;1.00;;;;;;4995646;28;20260;-68
2022/05/26 08:13:10;;;;;;;15.10;14.50;;;30.70;1.00;;;;;;4995476;28;20263;-68
2022/05/26 08:15:35;;;;;;;14.30;13.80;;;30.80;1.00;;;;;;4995709;28;20556;-69
2022/05/26 08:18:01;;;;;;;14.60;14.00;;;30.60;1.00;;;;;;4995495;28;20639;-69
2022/05/26 08:20:27;;;;;;;14.30;13.80;;;30.40;1.00;;;;;;4995553;28;20291;-68
2022/05/26 08:22:52;;;;;;;14.60;14.10;;;30.60;1.00;;;;;;4995282;28;20173;-70
2022/05/26 08:25:18;;;;;;;14.53;13.90;;;30.70;1.00;;;;;;4995520;28;20780;-69
2022/05/26 08:27:44;;;;;;;14.70;14.20;;;31.00;1.00;;;;;;4995552;28;20199;-69
2022/05/26 08:30:10;;;;;;;14.23;13.73;;;31.40;1.00;;;;;;4995339;28;20201;-70
2022/05/26 08:32:36;;;;;;;14.33;13.83;;;31.90;1.00;;;;;;4995116;28;20288;-69
2022/05/26 08:35:06;;;;;;;14.50;13.90;;;31.40;1.00;;;;;;4995206;28;20945;-69
2022/05/26 08:37:32;;;;;;;14.00;13.50;;;30.70;1.00;;;;;;4995118;28;20185;-68
2022/05/26 08:39:57;;;;;;;14.37;13.87;;;30.80;1.00;;;;;;4995195;28;20467;-68
2022/05/26 08:42:31;;;;;;;14.63;13.87;;;30.60;1.00;;;;;;4993458;28;20191;-70
2022/05/26 08:45:11;;;;;;;15.00;14.40;;;30.20;1.00;;;;;;4994992;28;20181;-69
2022/05/26 08:47:45;;;;;;;14.20;13.60;;;30.20;1.00;;;;;;4994948;28;20430;-69
2022/05/26 08:50:14;;;;;;;14.43;13.93;;;29.60;1.00;;;;;;4994912;28;20461;-68
2022/05/26 08:52:45;;;;;;;13.83;13.33;;;29.70;1.00;;;;;;4994690;28;20423;-68
2022/05/26 08:55:18;;;;;;;14.40;13.90;;;29.90;1.00;;;;;;4995318;28;20550;-68
2022/05/26 08:57:53;;;;;;;14.20;13.70;;;30.10;1.00;;;;;;4994963;28;20443;-68
2022/05/26 09:00:22;;;;;;;14.20;13.60;;;30.10;1.00;;;;;;4994840;28;20589;-68
2022/05/26 09:02:57;;;;;;;14.50;14.00;;;29.70;1.00;;;;;;4994355;28;20462;-69
2022/05/26 09:05:23;;;;;;;14.00;13.50;;;29.20;1.00;;;;;;4993533;28;20419;-68
2022/05/26 09:13:45;;;;;;;13.77;13.27;;;27.80;1.00;;;;;;4995491;28;20808;-68
2022/05/26 09:16:12;;;;;;;14.33;13.83;;;27.60;1.00;;;;;;4993571;28;20431;-69
2022/05/26 09:18:40;;;;;;;14.60;14.00;;;27.00;1.00;;;;;;4995087;28;20447;-68
2022/05/26 09:21:21;;;;;;;14.80;14.30;;;27.00;1.00;;;;;;4995720;28;20466;-69
2022/05/26 09:23:47;;;;;;;15.00;14.10;;;26.80;1.00;;;;;;4998722;28;20458;-68
2022/05/26 09:26:18;;;;;;;14.90;14.40;;;26.80;1.00;;;;;;4996616;28;20412;-68
2022/05/26 09:28:49;;;;;;;14.90;14.40;;;26.50;1.00;;;;;;5002006;28;20435;-69
2022/05/26 09:31:18;;;;;;;14.77;14.17;;;26.10;1.00;;;;;;4999954;28;20411;-69
2022/05/26 09:33:43;;;;;;;14.30;13.80;;;26.30;1.00;;;;;;4998774;28;20439;-68
2022/05/26 09:36:31;;;;;;;14.60;14.07;;;26.50;1.00;;;;;;4995872;28;20416;-69
2022/05/26 09:38:57;;;;;;;14.50;13.90;;;26.60;1.00;;;;;;4994781;28;20623;-68
2022/05/26 09:41:24;;;;;;;14.20;13.70;;;26.70;1.00;;;;;;4994480;28;20412;-70
2022/05/26 09:43:57;;;;;;;14.00;13.40;;;27.00;1.00;;;;;;4999819;28;20407;-68
2022/05/26 09:46:26;;;;;;;13.50;13.00;;;26.60;1.00;;;;;;4995562;28;20928;-71
2022/05/26 09:48:57;;;;;;;14.43;13.77;;;27.00;1.00;;;;;;4996083;28;20984;-69
2022/05/26 09:51:22;;;;;;;14.13;13.63;;;27.30;1.00;;;;;;4995261;28;20419;-67
2022/05/26 09:53:51;;;;;;;13.40;12.90;;;27.40;1.00;;;;;;4994875;28;20503;-69
2022/05/26 09:56:31;;;;;;;13.80;13.20;;;27.60;1.00;;;;;;4994149;28;20231;-68
2022/05/26 09:58:57;;;;;;;14.20;13.60;;;27.40;1.00;;;;;;4994538;28;20447;-69
2022/05/26 10:01:23;;;;;;;14.23;13.43;;;27.60;1.00;;;;;;4994256;28;20835;-69
2022/05/26 10:03:54;;;;;;;14.50;13.67;;;27.50;1.00;;;;;;4993806;28;20412;-69
2022/05/26 10:06:36;;;;;;;14.00;13.50;;;26.10;1.00;;;;;;4993969;28;20846;-69
2022/05/26 10:09:08;;;;;;;14.10;13.60;;;25.30;1.00;;;;;;4993810;28;20991;-69
2022/05/26 10:11:44;;;;;;;14.03;13.53;;;25.10;1.00;;;;;;4993520;28;20502;-69
2022/05/26 10:14:29;;;;;;;14.27;13.77;;;24.60;1.00;;;;;;4993811;28;20983;-68
2022/05/26 10:17:34;;;;;;;13.97;13.47;;;24.70;1.00;;;;;;4994146;28;20416;-70
2022/05/26 10:20:07;;;;;;;13.47;12.97;;;24.70;1.00;;;;;;4993427;28;20460;-68
2022/05/26 10:22:55;;;;;;;14.03;13.43;;;24.40;1.00;;;;;;4995694;28;20419;-69
2022/05/26 10:25:57;;;;;;;14.20;13.50;;;24.40;1.00;;;;;;4997802;28;20422;-68
2022/05/26 10:28:38;;;;;;;13.80;13.30;;;24.20;1.00;;;;;;4995833;28;20781;-70
2022/05/26 10:31:25;;;;;;;14.00;13.30;;;23.80;1.00;;;;;;4997547;28;20422;-67
2022/05/26 10:33:59;;;;;;;13.43;12.93;;;24.20;1.10;;;;;;4993642;28;20760;-67
2022/05/26 10:36:30;;;;;;;13.70;13.20;;;24.70;1.00;;;;;;4993483;28;20439;-68
2022/05/26 10:39:22;;;;;;;14.00;13.40;;;24.90;1.00;;;;;;4993496;28;20486;-68
2022/05/26 10:42:15;;;;;;;13.30;12.80;;;25.00;1.00;;;;;;4993482;28;20420;-68
2022/05/26 10:45:07;;;;;;;13.20;12.70;;;25.60;1.00;;;;;;4993309;28;20424;-69
2022/05/26 10:48:03;;;;;;;13.57;13.00;;;25.70;1.00;;;;;;4992977;28;20925;-68
2022/05/26 10:50:34;;;;;;;13.30;12.80;;;26.20;1.00;;;;;;4993083;28;20434;-68
2022/05/26 10:53:02;;;;;;;14.00;13.50;;;26.50;1.00;;;;;;4992613;28;20408;-68
2022/05/26 10:55:40;;;;;;;14.33;13.77;;;26.90;1.00;;;;;;4992945;28;20783;-69
2022/05/26 10:58:16;;;;;;;13.90;13.40;;;26.80;1.00;;;;;;4992954;28;20765;-68
2022/05/26 11:00:42;;;;;;;13.97;13.47;;;27.00;1.00;;;;;;4991759;28;20459;-68
2022/05/26 11:03:19;;;;;;;14.07;13.57;;;26.90;1.00;;;;;;4992247;28;20761;-68
2022/05/26 11:05:50;;;;;;;14.80;14.00;;;27.10;1.00;;;;;;4992675;28;20540;-68
2022/05/26 11:08:46;;;;;;;14.73;14.13;;;26.60;1.00;;;;;;4993920;28;20826;-68
2022/05/26 11:11:37;;;;;;;14.50;14.00;;;26.30;1.00;;;;;;4992584;28;20423;-68
2022/05/26 11:17:21;;;;;;;14.27;13.77;;;26.30;1.00;;;;;;4992607;28;20900;-68
2022/05/26 11:19:54;;;;;;;14.17;13.67;;;26.80;1.00;;;;;;4992606;28;20490;-68
2022/05/26 11:22:20;;;;;;;14.33;13.73;;;26.90;1.00;;;;;;4992486;28;20411;-68
2022/05/26 11:24:50;;;;;;;14.20;13.60;;;26.30;1.00;;;;;;4992720;28;20431;-69
2022/05/26 11:27:41;;;;;;;14.20;13.60;;;26.00;1.00;;;;;;4992925;28;20181;-69
2022/05/26 11:36:07;;;;;;;14.80;14.10;;;24.80;1.00;;;;;;4993696;28;20500;-69
2022/05/26 11:38:28;;;;;;;14.33;13.83;;;25.80;1.00;;;;;;4992572;28;20474;-68
2022/05/26 11:41:10;;;;;;;14.10;13.60;;;25.10;1.00;;;;;;4991990;28;20467;-68
2022/05/26 11:44:06;;;;;;;14.60;13.83;;;24.60;1.00;;;;;;4992274;28;20775;-68
2022/05/26 11:46:56;;;;;;;14.40;13.90;;;24.90;1.00;;;;;;4992364;28;20408;-68
2022/05/26 11:49:43;;;;;;;14.10;13.53;;;24.50;1.10;;;;;;4992158;28;20459;-67
2022/05/26 11:52:34;;;;;;;13.50;13.00;;;25.00;1.00;;;;;;4992357;28;20996;-68
2022/05/26 11:55:06;;;;;;;13.80;13.30;;;25.40;1.00;;;;;;4964094;28;20423;-68
2022/05/26 11:57:43;;;;;;;14.60;14.00;;;25.70;1.00;;;;;;4992132;28;20404;-67
2022/05/26 12:00:15;;;;;;;13.77;13.27;;;25.90;1.00;;;;;;4991991;28;21039;-68
2022/05/26 12:03:01;;;;;;;14.40;13.80;;;25.90;1.00;;;;;;4991993;28;20428;-68
2022/05/26 12:05:30;;;;;;;14.03;13.47;;;25.90;1.00;;;;;;4991268;28;20435;-69
2022/05/26 12:08:05;;;;;;;14.13;13.23;;;25.90;1.00;;;;;;4992123;28;20781;-68
2022/05/26 12:10:52;;;;;;;15.00;14.30;;;26.00;1.00;;;;;;4992382;28;20895;-68
2022/05/26 12:13:20;;;;;;;14.20;13.60;;;25.60;1.00;;;;;;4995381;28;20972;-68
2022/05/26 12:16:18;;;;;;;13.60;13.10;;;25.80;1.00;;;;;;4995764;28;20494;-69
2022/05/26 12:18:52;;;;;;;13.70;13.20;;;25.50;1.00;;;;;;4995833;28;20428;-69
2022/05/26 12:21:37;;;;;;;13.70;13.20;;;25.50;1.00;;;;;;4995109;28;20415;-68
2022/05/26 12:24:31;;;;;;;13.90;13.40;;;25.60;1.00;;;;;;4995312;28;20502;-68
2022/05/26 12:26:57;;;;;;;14.53;14.03;;;25.80;1.00;;;;;;4995195;28;20948;-69
2022/05/26 12:29:43;;;;;;;13.77;13.27;;;25.70;1.00;;;;;;4995525;28;20858;-68
2022/05/26 12:32:12;;;;;;;14.07;13.57;;;24.80;1.00;;;;;;4994980;28;20408;-69
2022/05/26 12:34:54;;;;;;;13.77;13.27;;;25.10;1.00;;;;;;4995054;28;20519;-69
2022/05/26 12:37:41;;;;;;;15.17;14.27;;;25.00;1.00;;;;;;4995255;28;20415;-69
2022/05/26 12:40:35;;;;;;;13.90;13.40;;;24.50;1.00;;;;;;4995274;28;20455;-68
2022/05/26 12:43:31;;;;;;;14.53;14.03;;;23.70;1.30;;;;;;4994802;28;20446;-68
2022/05/26 12:46:25;;;;;;;14.00;13.50;;;23.80;1.40;;;;;;4995139;28;20424;-68
2022/05/26 12:49:20;;;;;;;13.03;12.63;;;23.50;1.50;;;;;;4994939;28;20455;-68
2022/05/26 12:52:06;;;;;;;13.43;12.93;;;23.70;2.30;;;;;;4994737;28;20925;-69
2022/05/26 12:54:33;;;;;;;14.60;14.00;;;24.00;2.00;;;;;;4994882;28;20410;-69
2022/05/26 12:57:00;;;;;;;14.77;14.17;;;24.30;1.90;;;;;;4994863;28;20408;-69
2022/05/26 12:59:31;;;;;;;14.00;13.50;;;23.80;1.90;;;;;;4995022;28;20518;-68
2022/05/26 13:01:57;;;;;;;14.20;13.40;;;23.80;2.40;;;;;;4995002;28;20420;-69
2022/05/26 13:04:32;;;;;;;14.63;14.03;;;24.00;1.60;;;;;;4994973;28;20770;-68
2022/05/26 13:07:04;;;;;;;14.20;13.70;;;24.20;1.10;;;;;;4993548;28;20212;-69
2022/05/26 13:09:39;;;;;;;14.93;14.33;;;24.40;1.30;;;;;;4994523;28;20439;-69
2022/05/26 13:12:05;;;;;;;14.50;14.00;;;24.50;1.30;;;;;;4994169;28;20423;-69
2022/05/26 13:14:34;;;;;;;14.27;13.77;;;24.50;1.20;;;;;;4994486;28;20427;-68
2022/05/26 13:17:12;;;;;;;13.53;13.03;;;24.50;1.30;;;;;;4994426;28;20507;-67
2022/05/26 13:19:56;;;;;;;14.67;14.07;;;24.40;1.30;;;;;;4994402;28;20467;-69
2022/05/26 13:22:32;;;;;;;14.67;14.17;;;24.50;1.30;;;;;;4993189;28;20415;-69
2022/05/26 13:25:08;;;;;;;14.10;13.60;;;24.50;1.40;;;;;;4994914;28;20414;-67
2022/05/26 13:27:47;;;;;;;14.20;13.70;;;24.40;1.30;;;;;;4994620;28;20720;-68
2022/05/26 13:33:09;;;;;;;13.70;13.20;;;24.70;1.50;;;;;;4994030;28;20407;-68
2022/05/26 13:35:43;;;;;;;13.43;12.93;;;24.50;1.40;;;;;;4995080;28;20411;-72
2022/05/26 13:38:20;;;;;;;14.83;14.23;;;24.40;1.30;;;;;;4994271;28;20413;-69
2022/05/26 13:40:46;;;;;;;14.67;14.17;;;24.40;1.30;;;;;;4993794;28;20525;-70
2022/05/26 13:43:12;;;;;;;14.10;13.60;;;24.40;1.30;;;;;;4994069;28;20448;-69
2022/05/26 13:45:41;;;;;;;13.90;13.40;;;24.50;1.30;;;;;;4993937;28;20918;-68